Map

Track Data

SID SEASON NUMBER BASIN SUBBASIN NAME ISO_TIME NATURE LAT LON WMO_WIND WMO_PRES WMO_AGENCY TRACK_TYPE DIST2LAND LANDFALL IFLAG USA_AGENCY USA_ATCF_ID USA_LAT USA_LON USA_RECORD USA_STATUS USA_WIND USA_PRES USA_SSHS USA_R34_NE USA_R34_SE USA_R34_SW USA_R34_NW USA_R50_NE USA_R50_SE USA_R50_SW USA_R50_NW USA_R64_NE USA_R64_SE USA_R64_SW USA_R64_NW USA_POCI USA_ROCI USA_RMW USA_EYE TOKYO_LAT TOKYO_LON TOKYO_GRADE TOKYO_WIND TOKYO_PRES TOKYO_R50_DIR TOKYO_R50_LONG TOKYO_R50_SHORT TOKYO_R30_DIR TOKYO_R30_LONG TOKYO_R30_SHORT TOKYO_LAND CMA_LAT CMA_LON CMA_CAT CMA_WIND CMA_PRES HKO_LAT HKO_LON HKO_CAT HKO_WIND HKO_PRES NEWDELHI_LAT NEWDELHI_LON NEWDELHI_GRADE NEWDELHI_WIND NEWDELHI_PRES NEWDELHI_CI NEWDELHI_DP NEWDELHI_POCI REUNION_LAT REUNION_LON REUNION_TYPE REUNION_WIND REUNION_PRES REUNION_TNUM REUNION_CI REUNION_RMW REUNION_R34_NE REUNION_R34_SE REUNION_R34_SW REUNION_R34_NW REUNION_R50_NE REUNION_R50_SE REUNION_R50_SW REUNION_R50_NW REUNION_R64_NE REUNION_R64_SE REUNION_R64_SW REUNION_R64_NW BOM_LAT BOM_LON BOM_TYPE BOM_WIND BOM_PRES BOM_TNUM BOM_CI BOM_RMW BOM_R34_NE BOM_R34_SE BOM_R34_SW BOM_R34_NW BOM_R50_NE BOM_R50_SE BOM_R50_SW BOM_R50_NW BOM_R64_NE BOM_R64_SE BOM_R64_SW BOM_R64_NW BOM_ROCI BOM_POCI BOM_EYE BOM_POS_METHOD BOM_PRES_METHOD NADI_LAT NADI_LON NADI_CAT NADI_WIND NADI_PRES WELLINGTON_LAT WELLINGTON_LON WELLINGTON_WIND WELLINGTON_PRES DS824_LAT DS824_LON DS824_STAGE DS824_WIND DS824_PRES TD9636_LAT TD9636_LON TD9636_STAGE TD9636_WIND TD9636_PRES TD9635_LAT TD9635_LON TD9635_WIND TD9635_PRES TD9635_ROCI NEUMANN_LAT NEUMANN_LON NEUMANN_CLASS NEUMANN_WIND NEUMANN_PRES MLC_LAT MLC_LON MLC_CLASS MLC_WIND MLC_PRES USA_GUST BOM_GUST BOM_GUST_PER REUNION_GUST REUNION_GUST_PER USA_SEAHGT USA_SEARAD_NE USA_SEARAD_SE USA_SEARAD_SW USA_SEARAD_NW STORM_SPEED STORM_DIR
1990289N10261 1990 106 EP MM TRUDY 1990-10-16 00:00:00 TS 10.3000 -99.4000 25 1010 hurdat_epa main 661 661 O_____________ hurdat_epa EP231990 10.3000 -99.4000 TD 25 1010 -1 21 275
1990289N10261 1990 106 EP MM TRUDY 1990-10-16 03:00:00 TS 10.3911 -100.475 main 691 691 P_____________ EP231990 10.3911 -100.475 TD 25 1010 -1 19 276
1990289N10261 1990 106 EP MM TRUDY 1990-10-16 06:00:00 TS 10.5000 -101.300 25 1010 hurdat_epa main 712 710 O_____________ hurdat_epa EP231990 10.5000 -101.300 TD 25 1010 -1 12 282
1990289N10261 1990 106 EP MM TRUDY 1990-10-16 09:00:00 TS 10.6420 -101.713 main 716 702 P_____________ EP231990 10.6420 -101.713 TD 25 1010 -1 7 297
1990289N10261 1990 106 EP MM TRUDY 1990-10-16 12:00:00 TS 10.8000 -101.900 25 1010 hurdat_epa main 702 695 O_____________ hurdat_epa EP231990 10.8000 -101.900 TD 25 1010 -1 5 305
1990289N10261 1990 106 EP MM TRUDY 1990-10-16 15:00:00 TS 10.9350 -102.138 main 699 686 P_____________ EP231990 10.9350 -102.138 TD 25 1010 -1 5 307
1990289N10261 1990 106 EP MM TRUDY 1990-10-16 18:00:00 TS 11.1000 -102.300 25 1010 hurdat_epa main 686 666 O_____________ hurdat_epa EP231990 11.1000 -102.300 TD 25 1010 -1 5 332
1990289N10261 1990 106 EP MM TRUDY 1990-10-16 21:00:00 TS 11.3350 -102.358 main 671 640 P_____________ EP231990 11.3350 -102.358 TD 27 1009 -1 5 349
1990289N10261 1990 106 EP MM TRUDY 1990-10-17 00:00:00 TS 11.6000 -102.400 30 1009 hurdat_epa main 640 626 O_____________ hurdat_epa EP231990 11.6000 -102.400 TD 30 1009 -1 6 342
1990289N10261 1990 106 EP MM TRUDY 1990-10-17 03:00:00 TS 11.8575 -102.535 main 616 606 P_____________ EP231990 11.8575 -102.535 TD 30 1009 -1 6 330
1990289N10261 1990 106 EP MM TRUDY 1990-10-17 06:00:00 TS 12.1000 -102.700 30 1009 hurdat_epa main 606 588 O_____________ hurdat_epa EP231990 12.1000 -102.700 TD 30 1009 -1 6 326
1990289N10261 1990 106 EP MM TRUDY 1990-10-17 09:00:00 TS 12.3150 -102.850 main 592 574 P_____________ EP231990 12.3150 -102.850 TD 32 1008 -1 5 324
1990289N10261 1990 106 EP MM TRUDY 1990-10-17 12:00:00 TS 12.5000 -103.000 35 1008 hurdat_epa main 574 557 O_____________ hurdat_epa EP231990 12.5000 -103.000 TS 35 1008 0 5 321
1990289N10261 1990 106 EP MM TRUDY 1990-10-17 15:00:00 TS 12.6650 -103.143 main 557 551 P_____________ EP231990 12.6650 -103.143 TS 37 1006 0 4 316
1990289N10261 1990 106 EP MM TRUDY 1990-10-17 18:00:00 TS 12.8000 -103.300 40 1005 hurdat_epa main 556 550 O_____________ hurdat_epa EP231990 12.8000 -103.300 TS 40 1005 0 4 307
1990289N10261 1990 106 EP MM TRUDY 1990-10-17 21:00:00 TS 12.9075 -103.478 main 555 551 P_____________ EP231990 12.9075 -103.478 TS 45 1002 0 4 297
1990289N10261 1990 106 EP MM TRUDY 1990-10-18 00:00:00 TS 13.0000 -103.700 50 1000 hurdat_epa main 556 552 O_____________ hurdat_epa EP231990 13.0000 -103.700 TS 50 1000 0 5 293
1990289N10261 1990 106 EP MM TRUDY 1990-10-18 03:00:00 TS 13.1075 -103.970 main 563 560 P_____________ EP231990 13.1075 -103.970 TS 55 997 0 6 289
1990289N10261 1990 106 EP MM TRUDY 1990-10-18 06:00:00 TS 13.2000 -104.300 60 995 hurdat_epa main 567 567 O_____________ hurdat_epa EP231990 13.2000 -104.300 TS 60 995 0 7 283
1990289N10261 1990 106 EP MM TRUDY 1990-10-18 09:00:00 TS 13.2650 -104.685 main 570 570 P_____________ EP231990 13.2650 -104.685 TS 65 992 1 8 277
1990289N10261 1990 106 EP MM TRUDY 1990-10-18 12:00:00 TS 13.3000 -105.100 70 989 hurdat_epa main 584 584 O_____________ hurdat_epa EP231990 13.3000 -105.100 HU 70 989 1 8 273
1990289N10261 1990 106 EP MM TRUDY 1990-10-18 15:00:00 TS 13.3075 -105.508 main 599 599 P_____________ EP231990 13.3075 -105.508 HU 75 984 1 8 270
1990289N10261 1990 106 EP MM TRUDY 1990-10-18 18:00:00 TS 13.3000 -105.900 80 980 hurdat_epa main 615 615 O_____________ hurdat_epa EP231990 13.3000 -105.900 HU 80 980 1 7 268
1990289N10261 1990 106 EP MM TRUDY 1990-10-18 21:00:00 TS 13.2774 -106.250 main 634 634 P_____________ EP231990 13.2774 -106.250 HU 85 976 2 7 270
1990289N10261 1990 106 EP MM TRUDY 1990-10-19 00:00:00 TS 13.3000 -106.600 90 972 hurdat_epa main 650 650 O_____________ hurdat_epa EP231990 13.3000 -106.600 HU 90 972 2 7 281
1990289N10261 1990 106 EP MM TRUDY 1990-10-19 03:00:00 TS 13.4199 -106.985 main 664 660 P_____________ EP231990 13.4199 -106.985 HU 95 967 2 8 291
1990289N10261 1990 106 EP MM TRUDY 1990-10-19 06:00:00 TS 13.6000 -107.400 100 963 hurdat_epa main 671 669 O_____________ hurdat_epa EP231990 13.6000 -107.400 HU 100 963 3 9 294
1990289N10261 1990 106 EP MM TRUDY 1990-10-19 09:00:00 TS 13.7850 -107.843 main 681 681 P_____________ EP231990 13.7850 -107.843 HU 102 960 3 10 295
1990289N10261 1990 106 EP MM TRUDY 1990-10-19 12:00:00 TS 14.0000 -108.300 105 958 hurdat_epa main 691 687 O_____________ hurdat_epa EP231990 14.0000 -108.300 HU 105 958 3 10 298
1990289N10261 1990 106 EP MM TRUDY 1990-10-19 15:00:00 TS 14.2575 -108.757 main 694 692 P_____________ EP231990 14.2575 -108.757 HU 110 951 3 10 300
1990289N10261 1990 106 EP MM TRUDY 1990-10-19 18:00:00 TS 14.5000 -109.200 115 945 hurdat_epa main 704 702 O_____________ hurdat_epa EP231990 14.5000 -109.200 HU 115 945 4 9 296
1990289N10261 1990 106 EP MM TRUDY 1990-10-19 21:00:00 TS 14.6575 -109.623 main 717 717 P_____________ EP231990 14.6575 -109.623 HU 120 940 4 8 291
1990289N10261 1990 106 EP MM TRUDY 1990-10-20 00:00:00 TS 14.8000 -110.000 125 935 hurdat_epa main 739 739 O_____________ hurdat_epa EP231990 14.8000 -110.000 HU 125 935 4 8 297
1990289N10261 1990 106 EP MM TRUDY 1990-10-20 03:00:00 TS 14.9999 -110.330 main 747 746 P_____________ EP231990 14.9999 -110.330 HU 127 930 4 7 305
1990289N10261 1990 106 EP MM TRUDY 1990-10-20 06:00:00 TS 15.2000 -110.600 130 925 hurdat_epa main 754 754 O_____________ hurdat_epa EP231990 15.2000 -110.600 HU 130 925 4 6 307
1990289N10261 1990 106 EP MM TRUDY 1990-10-20 09:00:00 TS 15.3575 -110.823 main 755 755 P_____________ EP231990 15.3575 -110.823 HU 132 924 4 5 308
1990289N10261 1990 106 EP MM TRUDY 1990-10-20 12:00:00 TS 15.5000 -111.000 135 924 hurdat_epa main 765 765 O_____________ hurdat_epa EP231990 15.5000 -111.000 HU 135 924 4 4 311
1990289N10261 1990 106 EP MM TRUDY 1990-10-20 15:00:00 TS 15.6500 -111.173 main 768 768 P_____________ EP231990 15.6500 -111.173 HU 132 927 4 4 316
1990289N10261 1990 106 EP MM TRUDY 1990-10-20 18:00:00 TS 15.8000 -111.300 130 930 hurdat_epa main 770 764 O_____________ hurdat_epa EP231990 15.8000 -111.300 HU 130 930 4 4 327
1990289N10261 1990 106 EP MM TRUDY 1990-10-20 21:00:00 TS 15.9500 -111.373 main 773 760 P_____________ EP231990 15.9500 -111.373 HU 127 937 4 3 343
1990289N10261 1990 106 EP MM TRUDY 1990-10-21 00:00:00 TS 16.1000 -111.400 125 945 hurdat_epa main 760 748 O_____________ hurdat_epa EP231990 16.1000 -111.400 HU 125 945 4 3 354
1990289N10261 1990 106 EP MM TRUDY 1990-10-21 03:00:00 TS 16.2650 -111.415 main 748 741 P_____________ EP231990 16.2650 -111.415 HU 120 947 4 3 0
1990289N10261 1990 106 EP MM TRUDY 1990-10-21 06:00:00 TS 16.4000 -111.400 115 950 hurdat_epa main 741 730 O_____________ hurdat_epa EP231990 16.4000 -111.400 HU 115 950 4 2 13
1990289N10261 1990 106 EP MM TRUDY 1990-10-21 09:00:00 TS 16.4650 -111.365 main 730 726 P_____________ EP231990 16.4650 -111.365 HU 110 952 3 1 43
1990289N10261 1990 106 EP MM TRUDY 1990-10-21 12:00:00 TS 16.5000 -111.300 105 955 hurdat_epa main 726 718 O_____________ hurdat_epa EP231990 16.5000 -111.300 HU 105 955 3 2 62
1990289N10261 1990 106 EP MM TRUDY 1990-10-21 15:00:00 TS 16.5500 -111.200 main 711 702 P_____________ EP231990 16.5500 -111.200 HU 102 958 3 2 62
1990289N10261 1990 106 EP MM TRUDY 1990-10-21 18:00:00 TS 16.6000 -111.100 100 962 hurdat_epa main 702 694 O_____________ hurdat_epa EP231990 16.6000 -111.100 HU 100 962 3 2 58
1990289N10261 1990 106 EP MM TRUDY 1990-10-21 21:00:00 TS 16.6425 -111.042 main 694 687 P_____________ EP231990 16.6425 -111.042 HU 97 965 3 1 43
1990289N10261 1990 106 EP MM TRUDY 1990-10-22 00:00:00 TS 16.7000 -111.000 95 968 hurdat_epa main 687 672 O_____________ hurdat_epa EP231990 16.7000 -111.000 HU 95 968 2 2 36
1990289N10261 1990 106 EP MM TRUDY 1990-10-22 03:00:00 TS 16.7850 -110.935 main 672 666 P_____________ EP231990 16.7850 -110.935 HU 92 969 2 2 27
1990289N10261 1990 106 EP MM TRUDY 1990-10-22 06:00:00 TS 16.9000 -110.900 90 970 hurdat_epa main 666 660 O_____________ hurdat_epa EP231990 16.9000 -110.900 HU 90 970 2 3 3
1990289N10261 1990 106 EP MM TRUDY 1990-10-22 09:00:00 TS 17.0500 -110.935 main 655 646 P_____________ EP231990 17.0500 -110.935 HU 87 972 2 3 343
1990289N10261 1990 106 EP MM TRUDY 1990-10-22 12:00:00 TS 17.2000 -111.000 85 975 hurdat_epa main 646 634 O_____________ hurdat_epa EP231990 17.2000 -111.000 HU 85 975 2 3 337
1990289N10261 1990 106 EP MM TRUDY 1990-10-22 15:00:00 TS 17.3075 -111.050 main 636 625 P_____________ EP231990 17.3075 -111.050 HU 82 977 1 2 333
1990289N10261 1990 106 EP MM TRUDY 1990-10-22 18:00:00 TS 17.4000 -111.100 80 979 hurdat_epa main 625 614 O_____________ hurdat_epa EP231990 17.4000 -111.100 HU 80 979 1 2 336
1990289N10261 1990 106 EP MM TRUDY 1990-10-22 21:00:00 TS 17.5150 -111.142 main 614 605 P_____________ EP231990 17.5150 -111.143 HU 77 980 1 2 333
1990289N10261 1990 106 EP MM TRUDY 1990-10-23 00:00:00 TS 17.6000 -111.200 75 981 hurdat_epa main 605 605 O_____________ hurdat_epa EP231990 17.6000 -111.200 HU 75 981 1 2 307
1990289N10261 1990 106 EP MM TRUDY 1990-10-23 03:00:00 TS 17.6150 -111.285 main 608 608 P_____________ EP231990 17.6150 -111.285 HU 72 982 1 2 270
1990289N10261 1990 106 EP MM TRUDY 1990-10-23 06:00:00 TS 17.6000 -111.400 70 983 hurdat_epa main 610 610 O_____________ hurdat_epa EP231990 17.6000 -111.400 HU 70 983 1 3 268
1990289N10261 1990 106 EP MM TRUDY 1990-10-23 09:00:00 TS 17.6075 -111.578 main 615 615 P_____________ EP231990 17.6075 -111.603 HU 70 983 1 3 270
1990289N10261 1990 106 EP MM TRUDY 1990-10-23 12:00:00 TS 17.6000 -111.700 70 984 hurdat_epa main 618 615 O_____________ hurdat_epa EP231990 17.6000 -111.700 HU 70 984 1 1 0
1990289N10261 1990 106 EP MM TRUDY 1990-10-23 15:00:00 TS 17.5501 -111.594 main 615 615 P_____________ EP231990 17.5502 -111.427 HU 70 984 1 2 123
1990289N10261 1990 106 EP MM TRUDY 1990-10-23 18:00:00 TS 17.5000 -111.533 70 985 hurdat_epa main 623 623 O_____________ hurdat_epa EP231990 17.5000 -111.200 HU 70 985 1 1 247
1990289N10261 1990 106 EP MM TRUDY 1990-10-23 21:00:00 TS 17.4996 -111.718 main 629 629 P_____________ EP231990 17.4994 -111.335 HU 70 985 1 6 270
1990289N10261 1990 106 EP MM TRUDY 1990-10-24 00:00:00 TS 17.5000 -112.133 70 985 hurdat_epa main 642 642 O_____________ hurdat_epa EP231990 17.5000 -111.800 HU 70 985 1 10 268
1990289N10261 1990 106 EP MM TRUDY 1990-10-24 03:00:00 TS 17.4584 -112.817 main 670 670 P_____________ EP231990 17.4588 -112.650 HU 70 984 1 13 266
1990289N10261 1990 106 EP MM TRUDY 1990-10-24 06:00:00 TS 17.4000 -113.500 70 984 hurdat_epa main 715 715 O_____________ hurdat_epa EP231990 17.4000 -113.500 HU 70 984 1 10 264
1990289N10261 1990 106 EP MM TRUDY 1990-10-24 09:00:00 TS 17.3495 -113.842 main 741 741 P_____________ EP231990 17.3493 -113.867 HU 70 983 1 6 260
1990289N10261 1990 106 EP MM TRUDY 1990-10-24 12:00:00 TS 17.3000 -114.100 70 982 hurdat_epa main 758 758 O_____________ hurdat_epa EP231990 17.3000 -114.100 HU 70 982 1 6 261
1990289N10261 1990 106 EP MM TRUDY 1990-10-24 15:00:00 TS 17.2500 -114.485 main 782 782 P_____________ EP231990 17.2500 -114.485 HU 72 981 1 8 263
1990289N10261 1990 106 EP MM TRUDY 1990-10-24 18:00:00 TS 17.2000 -114.900 75 980 hurdat_epa main 817 817 O_____________ hurdat_epa EP231990 17.2000 -114.900 HU 75 980 1 8 262
1990289N10261 1990 106 EP MM TRUDY 1990-10-24 21:00:00 TS 17.1424 -115.300 main 852 852 P_____________ EP231990 17.1424 -115.300 HU 80 977 1 8 263
1990289N10261 1990 106 EP MM TRUDY 1990-10-25 00:00:00 TS 17.1000 -115.700 85 975 hurdat_epa main 880 880 O_____________ hurdat_epa EP231990 17.1000 -115.700 HU 85 975 2 8 266
1990289N10261 1990 106 EP MM TRUDY 1990-10-25 03:00:00 TS 17.0924 -116.100 main 909 909 P_____________ EP231990 17.0924 -116.100 HU 87 972 2 8 270
1990289N10261 1990 106 EP MM TRUDY 1990-10-25 06:00:00 TS 17.1000 -116.500 90 970 hurdat_epa main 938 938 O_____________ hurdat_epa EP231990 17.1000 -116.500 HU 90 970 2 8 271
1990289N10261 1990 106 EP MM TRUDY 1990-10-25 09:00:00 TS 17.0999 -116.900 main 969 969 P_____________ EP231990 17.0999 -116.900 HU 95 965 2 8 270
1990289N10261 1990 106 EP MM TRUDY 1990-10-25 12:00:00 TS 17.1000 -117.300 100 960 hurdat_epa main 1000 1000 O_____________ hurdat_epa EP231990 17.1000 -117.300 HU 100 960 3 8 269
1990289N10261 1990 106 EP MM TRUDY 1990-10-25 15:00:00 TS 17.0850 -117.715 main 1029 1029 P_____________ EP231990 17.0850 -117.715 HU 102 959 3 8 270
1990289N10261 1990 106 EP MM TRUDY 1990-10-25 18:00:00 TS 17.1000 -118.100 105 958 hurdat_epa main 1053 1053 O_____________ hurdat_epa EP231990 17.1000 -118.100 HU 105 958 3 7 278
1990289N10261 1990 106 EP MM TRUDY 1990-10-25 21:00:00 TS 17.1849 -118.415 main 1063 1063 P_____________ EP231990 17.1849 -118.415 HU 107 956 3 6 289
1990289N10261 1990 106 EP MM TRUDY 1990-10-26 00:00:00 TS 17.3000 -118.700 110 954 hurdat_epa main 1073 1071 O_____________ hurdat_epa EP231990 17.3000 -118.700 HU 110 954 3 6 291
1990289N10261 1990 106 EP MM TRUDY 1990-10-26 03:00:00 TS 17.4000 -119.000 main 1085 1085 P_____________ EP231990 17.4000 -119.000 HU 112 952 3 6 289
1990289N10261 1990 106 EP MM TRUDY 1990-10-26 06:00:00 TS 17.5000 -119.300 115 950 hurdat_epa main 1097 1097 O_____________ hurdat_epa EP231990 17.5000 -119.300 HU 115 950 4 6 289
1990289N10261 1990 106 EP MM TRUDY 1990-10-26 09:00:00 TS 17.6000 -119.608 main 1110 1110 P_____________ EP231990 17.6000 -119.608 HU 115 949 4 6 289
1990289N10261 1990 106 EP MM TRUDY 1990-10-26 12:00:00 TS 17.7000 -119.900 115 949 hurdat_epa main 1124 1124 O_____________ hurdat_epa EP231990 17.7000 -119.900 HU 115 949 4 6 291
1990289N10261 1990 106 EP MM TRUDY 1990-10-26 15:00:00 TS 17.8075 -120.165 main 1139 1138 P_____________ EP231990 17.8075 -120.165 HU 115 949 4 5 293
1990289N10261 1990 106 EP MM TRUDY 1990-10-26 18:00:00 TS 17.9000 -120.400 115 949 hurdat_epa main 1146 1146 O_____________ hurdat_epa EP231990 17.9000 -120.400 HU 115 949 4 4 290
1990289N10261 1990 106 EP MM TRUDY 1990-10-26 21:00:00 TS 17.9575 -120.608 main 1154 1154 P_____________ EP231990 17.9575 -120.608 HU 115 949 4 4 285
1990289N10261 1990 106 EP MM TRUDY 1990-10-27 00:00:00 TS 18.0000 -120.800 115 949 hurdat_epa main 1170 1170 O_____________ hurdat_epa EP231990 18.0000 -120.800 HU 115 949 4 4 285
1990289N10261 1990 106 EP MM TRUDY 1990-10-27 03:00:00 TS 18.0575 -121.007 main 1178 1178 P_____________ EP231990 18.0575 -121.007 HU 115 949 4 4 285
1990289N10261 1990 106 EP MM TRUDY 1990-10-27 06:00:00 TS 18.1000 -121.200 115 949 hurdat_epa main 1194 1194 O_____________ hurdat_epa EP231990 18.1000 -121.200 HU 115 949 4 3 279
1990289N10261 1990 106 EP MM TRUDY 1990-10-27 09:00:00 TS 18.1075 -121.358 main 1210 1210 P_____________ EP231990 18.1075 -121.358 HU 115 949 4 3 270
1990289N10261 1990 106 EP MM TRUDY 1990-10-27 12:00:00 TS 18.1000 -121.500 115 950 hurdat_epa main 1218 1218 O_____________ hurdat_epa EP231990 18.1000 -121.500 HU 115 950 4 3 269
1990289N10261 1990 106 EP MM TRUDY 1990-10-27 15:00:00 TS 18.1000 -121.658 main 1235 1235 P_____________ EP231990 18.1000 -121.658 HU 112 952 3 3 270
1990289N10261 1990 106 EP MM TRUDY 1990-10-27 18:00:00 TS 18.1000 -121.800 110 955 hurdat_epa main 1243 1243 O_____________ hurdat_epa EP231990 18.1000 -121.800 HU 110 955 3 2 268
1990289N10261 1990 106 EP MM TRUDY 1990-10-27 21:00:00 TS 18.0924 -121.893 main 1251 1251 P_____________ EP231990 18.0924 -121.893 HU 105 956 3 2 270
1990289N10261 1990 106 EP MM TRUDY 1990-10-28 00:00:00 TS 18.1000 -122.000 100 958 hurdat_epa main 1259 1259 O_____________ hurdat_epa EP231990 18.1000 -122.000 HU 100 958 3 3 280
1990289N10261 1990 106 EP MM TRUDY 1990-10-28 03:00:00 TS 18.1426 -122.200 main 1276 1269 P_____________ EP231990 18.1426 -122.200 HU 100 959 3 4 285
1990289N10261 1990 106 EP MM TRUDY 1990-10-28 06:00:00 TS 18.2000 -122.400 100 960 hurdat_epa main 1286 1286 O_____________ hurdat_epa EP231990 18.2000 -122.400 HU 100 960 3 3 290
1990289N10261 1990 106 EP MM TRUDY 1990-10-28 09:00:00 TS 18.2500 -122.508 main 1295 1288 P_____________ EP231990 18.2500 -122.508 HU 95 962 2 2 298
1990289N10261 1990 106 EP MM TRUDY 1990-10-28 12:00:00 TS 18.3000 -122.600 90 965 hurdat_epa main 1297 1297 O_____________ hurdat_epa EP231990 18.3000 -122.600 HU 90 965 2 3 290
1990289N10261 1990 106 EP MM TRUDY 1990-10-28 15:00:00 TS 18.3350 -122.758 main 1314 1306 P_____________ EP231990 18.3350 -122.758 HU 87 967 2 3 289
1990289N10261 1990 106 EP MM TRUDY 1990-10-28 18:00:00 TS 18.4000 -122.900 85 970 hurdat_epa main 1312 1304 O_____________ hurdat_epa EP231990 18.4000 -122.900 HU 85 970 2 3 317
1990289N10261 1990 106 EP MM TRUDY 1990-10-28 21:00:00 TS 18.5425 -122.965 main 1311 1294 P_____________ EP231990 18.5425 -122.965 HU 82 972 1 3 343
1990289N10261 1990 106 EP MM TRUDY 1990-10-29 00:00:00 TS 18.7000 -123.000 80 975 hurdat_epa main 1294 1285 O_____________ hurdat_epa EP231990 18.7000 -123.000 HU 80 975 1 3 340
1990289N10261 1990 106 EP MM TRUDY 1990-10-29 03:00:00 TS 18.7925 -123.058 main 1292 1284 P_____________ EP231990 18.7925 -123.058 HU 75 977 1 2 333
1990289N10261 1990 106 EP MM TRUDY 1990-10-29 06:00:00 TS 18.9000 -123.100 70 979 hurdat_epa main 1284 1266 O_____________ hurdat_epa EP231990 18.9000 -123.100 HU 70 979 1 3 351
1990289N10261 1990 106 EP MM TRUDY 1990-10-29 09:00:00 TS 19.0850 -123.093 main 1266 1249 P_____________ EP231990 19.0850 -123.093 HU 67 980 1 4 0
1990289N10261 1990 106 EP MM TRUDY 1990-10-29 12:00:00 TS 19.3000 -123.100 65 982 hurdat_epa main 1249 1239 O_____________ hurdat_epa EP231990 19.3000 -123.100 HU 65 982 1 4 348
1990289N10261 1990 106 EP MM TRUDY 1990-10-29 15:00:00 TS 19.5000 -123.185 main 1239 1229 P_____________ EP231990 19.5000 -123.185 HU 62 985 0 4 335
1990289N10261 1990 106 EP MM TRUDY 1990-10-29 18:00:00 TS 19.7000 -123.300 60 988 hurdat_epa main 1229 1219 O_____________ hurdat_epa EP231990 19.7000 -123.300 TS 60 988 0 5 334
1990289N10261 1990 106 EP MM TRUDY 1990-10-29 21:00:00 TS 19.9075 -123.400 main 1219 1210 P_____________ EP231990 19.9075 -123.400 TS 57 989 0 4 335
1990289N10261 1990 106 EP MM TRUDY 1990-10-30 00:00:00 TS 20.1000 -123.500 55 990 hurdat_epa main 1210 1201 O_____________ hurdat_epa EP231990 20.1000 -123.500 TS 55 990 0 4 331
1990289N10261 1990 106 EP MM TRUDY 1990-10-30 03:00:00 TS 20.2650 -123.608 main 1201 1201 P_____________ EP231990 20.2650 -123.608 TS 52 992 0 4 329
1990289N10261 1990 106 EP MM TRUDY 1990-10-30 06:00:00 TS 20.4000 -123.700 50 995 hurdat_epa main 1201 1193 O_____________ hurdat_epa EP231990 20.4000 -123.700 TS 50 995 0 3 328
1990289N10261 1990 106 EP MM TRUDY 1990-10-30 09:00:00 TS 20.5150 -123.773 main 1200 1193 P_____________ EP231990 20.5150 -123.773 TS 47 996 0 2 333
1990289N10261 1990 106 EP MM TRUDY 1990-10-30 12:00:00 TS 20.6000 -123.800 45 998 hurdat_epa main 1193 1193 O_____________ hurdat_epa EP231990 20.6000 -123.800 TS 45 998 0 1 0
1990289N10261 1990 106 EP MM TRUDY 1990-10-30 15:00:00 TS 20.6425 -123.772 main 1193 1178 P_____________ EP231990 20.6425 -123.772 TS 42 999 0 1 43
1990289N10261 1990 106 EP MM TRUDY 1990-10-30 18:00:00 TS 20.7000 -123.700 40 1000 hurdat_epa main 1178 1162 O_____________ hurdat_epa EP231990 20.7000 -123.700 TS 40 1000 0 2 41
1990289N10261 1990 106 EP MM TRUDY 1990-10-30 21:00:00 TS 20.8125 -123.615 main 1162 1139 P_____________ EP231990 20.8125 -123.615 TS 37 1002 0 4 31
1990289N10261 1990 106 EP MM TRUDY 1990-10-31 00:00:00 TS 21.0000 -123.500 35 1005 hurdat_epa main 1139 1109 O_____________ hurdat_epa EP231990 21.0000 -123.500 TS 35 1005 0 6 24
1990289N10261 1990 106 EP MM TRUDY 1990-10-31 03:00:00 TS 21.3675 -123.350 main 1102 1072 P_____________ EP231990 21.3675 -123.350 TS 35 1005 0 7 25
1990289N10261 1990 106 EP MM TRUDY 1990-10-31 06:00:00 TS 21.6000 -123.200 35 1005 hurdat_epa main 1072 1064 O_____________ hurdat_epa EP231990 21.6000 -123.200 TS 35 1005 0 3 92
1990289N10261 1990 106 EP MM TRUDY 1990-10-31 09:00:00 TS 21.3600 -123.077 main 1079 1079 P_____________ EP231990 21.3600 -123.077 TS 32 1006 -1 6 163
1990289N10261 1990 106 EP MM TRUDY 1990-10-31 12:00:00 TS 21.0000 -123.000 30 1008 hurdat_epa main 1102 1102 O_____________ hurdat_epa EP231990 21.0000 -123.000 TD 30 1008 -1 5 166
1990289N10261 1990 106 EP MM TRUDY 1990-10-31 15:00:00 TS 20.8924 -122.955 main 1110 1110 P_____________ EP231990 20.8924 -122.955 TD 27 1008 -1 2 172
1990289N10261 1990 106 EP MM TRUDY 1990-10-31 18:00:00 TS 20.8000 -123.000 25 1009 hurdat_epa main 1118 1118 O_____________ hurdat_epa EP231990 20.8000 -123.000 TD 25 1009 -1 4 211
1990289N10261 1990 106 EP MM TRUDY 1990-10-31 21:00:00 TS 20.5725 -123.163 main 1148 1148 P_____________ EP231990 20.5725 -123.163 TD 25 1009 -1 6 217
1990289N10261 1990 106 EP MM TRUDY 1990-11-01 00:00:00 TS 20.3000 -123.400 25 1010 hurdat_epa main 1187 1187 O_____________ hurdat_epa EP231990 20.3000 -123.400 TD 25 1010 -1 7 220
1990289N10261 1990 106 EP MM TRUDY 1990-11-01 03:00:00 TS 20.0649 -123.620 main 1217 1217 P_____________ EP231990 20.0649 -123.620 TD 25 1010 -1 7 223
1990289N10261 1990 106 EP MM TRUDY 1990-11-01 06:00:00 TS 19.8000 -123.900 25 1010 hurdat_epa main 1263 1263 O_____________ hurdat_epa EP231990 19.8000 -123.900 TD 25 1010 -1 9 226
1990289N10261 1990 106 EP MM TRUDY 1990-11-01 09:00:00 TS 19.4703 -124.273 main 1316 1316 P_____________ EP231990 19.4703 -124.273 TD 22 1010 -1 10 227
1990289N10261 1990 106 EP MM TRUDY 1990-11-01 12:00:00 TS 19.1000 -124.700 20 1010 hurdat_epa main 1378 O_____________ hurdat_epa EP231990 19.1000 -124.700 TD 20 1010 -1 11 228

About IBTrACS Database

This database is a web-friendly format of International Best Track Archive for Climate Stewardship (IBTrACS), a global best track data archive curated by NOAA dating back to 1842.

Updated: 2021-12-03